createdAt,value
2023-04-22T00:00:36.759Z,11.20
2023-04-22T00:03:08.853Z,11.20
2023-04-22T00:05:42.318Z,11.20
2023-04-22T00:08:14.307Z,11.20
2023-04-22T00:10:46.866Z,11.20
2023-04-22T00:15:51.906Z,11.20
2023-04-22T00:18:23.917Z,11.10
2023-04-22T00:26:02.826Z,11.00
2023-04-22T00:28:34.677Z,11.10
2023-04-22T00:31:07.324Z,10.90
2023-04-22T00:36:14.910Z,10.80
2023-04-22T00:38:52.595Z,10.70
2023-04-22T00:41:26.238Z,10.70
2023-04-22T00:44:00.442Z,10.70
2023-04-22T00:46:34.742Z,10.60
2023-04-22T00:49:08.095Z,10.50
2023-04-22T00:51:40.917Z,10.40
2023-04-22T00:56:46.489Z,10.60
2023-04-22T00:59:18.483Z,10.50
2023-04-22T01:04:45.123Z,10.50
2023-04-22T01:09:50.661Z,10.30
2023-04-22T01:17:32.229Z,10.10
2023-04-22T01:20:06.252Z,10.20
2023-04-22T01:22:42.684Z,10.50
2023-04-22T01:25:15.469Z,10.60
2023-04-22T01:27:47.514Z,10.30
2023-04-22T01:32:53.031Z,10.10
2023-04-22T01:35:26.551Z,10.00
2023-04-22T01:37:58.441Z,9.90
2023-04-22T01:40:32.883Z,9.80
2023-04-22T01:43:05.672Z,9.90
2023-04-22T01:45:38.831Z,9.90
2023-04-22T01:48:11.320Z,10.00
2023-04-22T01:50:44.082Z,9.90
2023-04-22T01:53:19.041Z,9.80
2023-04-22T01:55:51.795Z,9.90
2023-04-22T01:58:23.673Z,10.00
2023-04-22T02:03:29.027Z,9.90
2023-04-22T02:06:01.792Z,10.10
2023-04-22T02:11:08.040Z,10.00
2023-04-22T02:13:41.206Z,9.90
2023-04-22T02:16:14.087Z,9.70
2023-04-22T02:18:47.750Z,9.50
2023-04-22T02:21:19.628Z,9.40
2023-04-22T02:23:52.324Z,9.40
2023-04-22T02:28:58.262Z,9.30
2023-04-22T02:34:05.784Z,9.30
2023-04-22T02:36:38.133Z,9.20
2023-04-22T02:41:44.874Z,9.50
2023-04-22T02:44:17.337Z,9.50
2023-04-22T02:51:57.552Z,9.10
2023-04-22T02:54:30.336Z,9.10
2023-04-22T02:57:03.015Z,9.00
2023-04-22T02:59:37.808Z,9.00
2023-04-22T03:02:11.415Z,8.90
2023-04-22T03:05:04.311Z,9.10
2023-04-22T03:07:36.494Z,9.40
2023-04-22T03:10:09.507Z,9.70
2023-04-22T03:12:41.885Z,9.50
2023-04-22T03:15:14.838Z,9.40
2023-04-22T03:17:46.762Z,9.20
2023-04-22T03:20:22.170Z,9.10
2023-04-22T03:22:54.608Z,9.00
2023-04-22T03:28:04.130Z,8.90
2023-04-22T03:30:36.907Z,8.70
2023-04-22T03:33:08.944Z,8.80
2023-04-22T03:35:50.197Z,9.40
2023-04-22T03:43:44.654Z,9.20
2023-04-22T03:46:17.650Z,9.10
2023-04-22T03:49:01.441Z,9.10
2023-04-22T03:51:39.156Z,9.10
2023-04-22T03:56:56.151Z,9.20
2023-04-22T03:59:29.607Z,9.30
2023-04-22T04:02:02.448Z,9.30
2023-04-22T04:14:51.670Z,9.20
2023-04-22T04:17:26.362Z,9.40
2023-04-22T04:22:32.528Z,9.10
2023-04-22T04:25:06.924Z,9.00
2023-04-22T04:38:07.920Z,9.20
2023-04-22T04:40:43.625Z,9.20
2023-04-22T04:46:21.233Z,9.30
2023-04-22T04:48:54.450Z,9.30
2023-04-22T04:51:27.556Z,9.50
2023-04-22T04:56:41.540Z,9.60
2023-04-22T04:59:14.963Z,9.80
2023-04-22T05:01:48.309Z,9.90
2023-04-22T05:04:22.069Z,10.00
2023-04-22T05:06:55.126Z,10.00
2023-04-22T05:12:00.285Z,9.90
2023-04-22T05:14:32.456Z,10.10
2023-04-22T05:17:05.477Z,10.10
2023-04-22T05:19:37.530Z,10.30
2023-04-22T05:22:10.489Z,10.20
2023-04-22T05:24:42.643Z,10.10
2023-04-22T05:29:48.040Z,9.80
2023-04-22T05:32:24.460Z,9.70
2023-04-22T05:37:30.047Z,9.90
2023-04-22T05:40:02.036Z,9.90
2023-04-22T05:45:09.135Z,10.10
2023-04-22T05:47:43.360Z,10.30
2023-04-22T05:50:16.027Z,10.40
2023-04-22T05:53:08.650Z,10.60
2023-04-22T05:55:41.140Z,10.70
2023-04-22T05:58:14.874Z,10.90
2023-04-22T06:03:55.854Z,11.10
2023-04-22T06:06:30.675Z,11.10
2023-04-22T06:09:03.471Z,11.20
2023-04-22T06:11:35.696Z,11.30
2023-04-22T06:21:49.701Z,12.80
2023-04-22T06:24:22.933Z,13.20
2023-04-22T06:26:54.869Z,13.40
2023-04-22T06:29:27.821Z,13.60
2023-04-22T06:31:59.846Z,13.90
2023-04-22T06:34:33.208Z,13.90
2023-04-22T06:37:06.515Z,13.80
2023-04-22T06:39:41.977Z,14.10
2023-04-22T06:45:25.327Z,14.50
2023-04-22T06:48:23.218Z,14.60
2023-04-22T06:51:15.123Z,14.70
2023-04-22T06:53:48.003Z,14.60
2023-04-22T06:56:21.256Z,14.70
2023-04-22T07:01:26.863Z,14.50
2023-04-22T07:04:20.878Z,14.30
2023-04-22T07:06:53.785Z,14.20
2023-04-22T07:09:27.240Z,14.10
2023-04-22T07:11:59.353Z,14.10
2023-04-22T07:14:36.221Z,14.00
2023-04-22T07:17:08.131Z,14.00
2023-04-22T07:19:41.619Z,14.00
2023-04-22T07:24:46.893Z,14.30
2023-04-22T07:29:52.041Z,13.70
2023-04-22T07:32:24.063Z,14.00
2023-04-22T07:34:56.912Z,14.10
2023-04-22T07:37:29.477Z,14.50
2023-04-22T07:40:04.528Z,15.60
2023-04-22T07:45:11.895Z,18.50
2023-04-22T07:50:17.206Z,19.80
2023-04-22T07:52:49.413Z,20.80
2023-04-22T07:55:22.168Z,20.80
2023-04-22T07:57:54.475Z,21.90
2023-04-22T08:00:26.908Z,22.70
2023-04-22T08:02:59.747Z,22.20
2023-04-22T08:05:32.191Z,23.10
2023-04-22T08:08:06.510Z,23.10
2023-04-22T08:10:38.855Z,23.10
2023-04-22T08:13:10.823Z,22.10
2023-04-22T08:15:43.592Z,23.60
2023-04-22T08:18:15.588Z,22.00
2023-04-22T08:20:48.554Z,21.00
2023-04-22T08:23:21.370Z,21.00
2023-04-22T08:25:54.143Z,21.10
2023-04-22T08:28:26.298Z,21.80
2023-04-22T08:30:59.085Z,21.70
2023-04-22T08:33:31.388Z,21.60
2023-04-22T08:36:04.129Z,21.50
2023-04-22T08:38:39.277Z,21.50
2023-04-22T08:41:12.736Z,21.30
2023-04-22T08:43:46.834Z,21.50
2023-04-22T08:46:20.268Z,21.50
2023-04-22T08:48:55.219Z,21.30
2023-04-22T08:54:01.288Z,20.80
2023-04-22T08:56:34.915Z,21.00
2023-04-22T08:59:08.035Z,21.10
2023-04-22T09:01:43.429Z,20.80
2023-04-22T09:04:16.650Z,20.60
2023-04-22T09:09:21.597Z,20.70
2023-04-22T09:11:54.205Z,20.80
2023-04-22T09:14:28.238Z,21.30
2023-04-22T09:17:33.527Z,21.70
2023-04-22T09:20:08.789Z,22.50
2023-04-22T09:22:47.181Z,22.80
2023-04-22T09:25:25.969Z,22.80
2023-04-22T09:28:00.290Z,22.90
2023-04-22T09:30:36.548Z,22.50
2023-04-22T09:33:09.046Z,22.60
2023-04-22T09:35:43.236Z,23.00
2023-04-22T09:38:17.133Z,23.50
2023-04-22T09:40:49.696Z,23.40
2023-04-22T09:43:22.539Z,23.50
2023-04-22T09:45:54.938Z,23.30
2023-04-22T09:48:27.452Z,23.50
2023-04-22T09:50:59.430Z,23.60
2023-04-22T09:53:38.254Z,24.00
2023-04-22T09:56:10.266Z,24.00
2023-04-22T09:58:44.197Z,24.20
2023-04-22T10:01:16.644Z,24.70
2023-04-22T10:03:48.627Z,24.80
2023-04-22T10:06:21.492Z,24.50
2023-04-22T10:08:53.565Z,24.60
2023-04-22T10:11:26.012Z,25.80
2023-04-22T10:14:00.915Z,25.30
2023-04-22T10:16:36.086Z,25.10
2023-04-22T10:19:13.892Z,25.10
2023-04-22T10:21:47.732Z,25.10
2023-04-22T10:24:20.646Z,24.60
2023-04-22T10:27:06.812Z,24.50
2023-04-22T10:29:41.817Z,24.80
2023-04-22T10:32:17.998Z,25.10
2023-04-22T10:34:50.652Z,25.60
2023-04-22T10:37:25.686Z,25.70
2023-04-22T10:40:16.696Z,24.10
2023-04-22T10:42:53.547Z,24.00
2023-04-22T10:45:26.537Z,23.50
2023-04-22T10:48:07.527Z,24.30
2023-04-22T10:50:39.918Z,22.40
2023-04-22T10:53:35.733Z,22.40
2023-04-22T10:56:18.100Z,22.20
2023-04-22T10:58:50.602Z,21.90
2023-04-22T11:01:23.302Z,21.50
2023-04-22T11:04:30.794Z,21.20
2023-04-22T11:07:23.174Z,21.00
2023-04-22T11:10:10.493Z,20.80
2023-04-22T11:12:44.778Z,22.30
2023-04-22T11:15:22.299Z,20.50
2023-04-22T11:17:56.137Z,20.40
2023-04-22T11:20:29.462Z,20.30
2023-04-22T11:23:03.849Z,20.20
2023-04-22T11:25:35.950Z,20.40
2023-04-22T11:28:08.502Z,20.60
2023-04-22T11:33:16.902Z,21.00
2023-04-22T11:35:50.599Z,21.90
2023-04-22T11:38:23.344Z,22.30
2023-04-22T11:40:58.323Z,22.80
2023-04-22T11:43:31.712Z,22.40
2023-04-22T11:46:05.082Z,22.30
2023-04-22T11:48:37.872Z,22.10
2023-04-22T11:51:11.737Z,22.30
2023-04-22T11:53:51.637Z,22.60
2023-04-22T11:56:24.119Z,22.60
2023-04-22T11:58:56.078Z,22.30
2023-04-22T12:01:30.132Z,22.20
2023-04-22T12:04:04.057Z,22.00
2023-04-22T12:06:36.288Z,22.10
2023-04-22T12:09:09.088Z,22.40
2023-04-22T12:11:41.321Z,22.00
2023-04-22T12:14:13.914Z,22.00
2023-04-22T12:16:45.896Z,21.60
2023-04-22T12:19:27.141Z,21.30
2023-04-22T12:24:32.840Z,21.30
2023-04-22T12:29:38.172Z,21.70
2023-04-22T12:32:10.244Z,22.20
2023-04-22T12:34:43.014Z,22.80
2023-04-22T12:37:15.374Z,22.90
2023-04-22T12:39:48.219Z,23.00
2023-04-22T12:42:20.184Z,23.10
2023-04-22T12:44:53.083Z,22.80
2023-04-22T12:50:00.704Z,22.10
2023-04-22T12:52:35.281Z,22.20
2023-04-22T12:55:08.755Z,22.80
2023-04-22T12:57:41.143Z,22.30
2023-04-22T13:00:14.783Z,22.30
2023-04-22T13:02:49.911Z,22.20
2023-04-22T13:05:22.427Z,22.40
2023-04-22T13:10:30.923Z,22.80
2023-04-22T13:13:15.863Z,22.80
2023-04-22T13:15:54.454Z,22.90
2023-04-22T13:21:00.650Z,22.80
2023-04-22T13:23:33.781Z,22.80
2023-04-22T13:26:07.308Z,22.60
2023-04-22T13:28:39.250Z,22.50
2023-04-22T13:31:12.126Z,24.20
2023-04-22T13:33:45.452Z,22.80
2023-04-22T13:36:17.383Z,22.60
2023-04-22T13:38:51.328Z,22.70
2023-04-22T13:41:23.230Z,22.50
2023-04-22T13:43:58.702Z,22.40
2023-04-22T13:46:31.103Z,22.80
2023-04-22T13:49:03.878Z,22.80
2023-04-22T13:51:37.799Z,22.90
2023-04-22T13:54:10.166Z,23.20
2023-04-22T13:56:42.464Z,23.50
2023-04-22T13:59:14.947Z,23.60
2023-04-22T14:01:47.326Z,23.10
2023-04-22T14:04:19.662Z,23.70
2023-04-22T14:06:51.740Z,23.00
2023-04-22T14:09:24.505Z,23.00
2023-04-22T14:11:56.846Z,22.80
2023-04-22T14:17:02.725Z,22.40
2023-04-22T14:19:36.445Z,22.20
2023-04-22T14:22:09.226Z,22.30
2023-04-22T14:24:41.182Z,22.20
2023-04-22T14:27:13.624Z,22.10
2023-04-22T14:32:20.247Z,22.00
2023-04-22T14:37:26.671Z,22.00
2023-04-22T14:42:32.360Z,22.00
2023-04-22T14:47:37.442Z,21.80
2023-04-22T14:50:10.628Z,21.60
2023-04-22T14:52:42.614Z,21.70
2023-04-22T14:55:22.508Z,21.60
2023-04-22T14:57:57.850Z,21.50
2023-04-22T15:00:29.991Z,21.40
2023-04-22T15:05:36.632Z,21.00
2023-04-22T15:08:08.608Z,20.80
2023-04-22T15:10:41.277Z,20.60
2023-04-22T15:15:47.205Z,20.10
2023-04-22T15:18:19.712Z,19.90
2023-04-22T15:20:51.708Z,19.80
2023-04-22T15:23:24.711Z,19.60
2023-04-22T15:25:57.544Z,19.20
2023-04-22T15:28:30.247Z,18.60
2023-04-22T15:31:03.216Z,18.40
2023-04-22T15:33:36.187Z,18.30
2023-04-22T15:38:42.010Z,18.20
2023-04-22T15:41:36.837Z,18.10
2023-04-22T15:44:30.932Z,18.00
2023-04-22T15:49:38.363Z,17.90
2023-04-22T15:52:11.424Z,17.90
2023-04-22T15:54:45.529Z,17.90
2023-04-22T15:57:17.894Z,17.90
2023-04-22T16:02:46.515Z,17.80
2023-04-22T16:10:28.398Z,17.90
2023-04-22T16:13:00.293Z,17.90
2023-04-22T16:15:33.063Z,18.00
2023-04-22T16:18:05.717Z,17.90
2023-04-22T16:20:37.705Z,17.90
2023-04-22T16:25:42.864Z,17.80
2023-04-22T16:28:15.933Z,17.80
2023-04-22T16:30:48.156Z,17.80
2023-04-22T16:36:14.324Z,17.80
2023-04-22T16:38:47.056Z,17.80
2023-04-22T16:48:58.337Z,17.60
2023-04-22T16:51:30.767Z,17.60
2023-04-22T16:54:03.092Z,17.50
2023-04-22T16:56:35.820Z,17.50
2023-04-22T16:59:07.780Z,17.50
2023-04-22T17:01:41.203Z,17.50
2023-04-22T17:12:14.232Z,17.30
2023-04-22T17:14:46.639Z,17.30
2023-04-22T17:17:20.096Z,17.40
2023-04-22T17:19:52.520Z,17.40
2023-04-22T17:22:25.257Z,17.50
2023-04-22T17:24:58.750Z,17.40
2023-04-22T17:27:32.115Z,17.40
2023-04-22T17:30:05.267Z,17.30
2023-04-22T17:32:37.718Z,17.20
2023-04-22T17:35:10.518Z,17.20
2023-04-22T17:37:43.456Z,17.10
2023-04-22T17:42:48.682Z,17.00
2023-04-22T17:45:20.802Z,16.90
2023-04-22T17:47:53.642Z,16.80
2023-04-22T17:52:58.801Z,16.60
2023-04-22T17:58:07.862Z,16.50
2023-04-22T18:00:40.302Z,16.20
2023-04-22T18:03:13.511Z,16.20
2023-04-22T18:05:48.947Z,16.10
2023-04-22T18:08:21.302Z,16.10
2023-04-22T18:15:59.703Z,15.90
2023-04-22T18:18:32.634Z,15.90
2023-04-22T18:21:05.017Z,15.90
2023-04-22T18:23:37.304Z,15.80
2023-04-22T18:26:12.044Z,15.80
2023-04-22T18:36:23.202Z,15.70
2023-04-22T18:38:56.451Z,15.70
2023-04-22T18:41:28.353Z,15.70
2023-04-22T18:46:33.445Z,15.80
2023-04-22T18:52:21.182Z,15.90
2023-04-22T18:57:26.845Z,15.90
2023-04-22T18:59:58.755Z,15.80
2023-04-22T19:05:06.421Z,15.80
2023-04-22T19:07:42.484Z,15.80
2023-04-22T19:12:48.824Z,15.80
2023-04-22T19:15:21.372Z,15.80
2023-04-22T19:20:27.122Z,15.80
2023-04-22T19:22:59.881Z,15.80
2023-04-22T19:25:31.775Z,15.70
2023-04-22T19:28:04.757Z,15.70
2023-04-22T19:30:37.203Z,15.70
2023-04-22T19:33:10.472Z,15.70
2023-04-22T19:35:42.452Z,15.70
2023-04-22T19:38:19.378Z,15.70
2023-04-22T19:40:51.374Z,15.60
2023-04-22T19:45:58.702Z,15.60
2023-04-22T19:48:31.778Z,15.60
2023-04-22T19:51:05.465Z,15.60
2023-04-22T19:53:39.606Z,15.60
2023-04-22T19:56:12.137Z,15.60
2023-04-22T19:58:44.383Z,15.60
2023-04-22T20:01:17.520Z,15.60
2023-04-22T20:03:50.006Z,15.60
2023-04-22T20:06:23.210Z,15.60
2023-04-22T20:08:58.926Z,15.50
2023-04-22T20:11:32.740Z,15.50
2023-04-22T20:14:07.377Z,15.50
2023-04-22T20:19:15.407Z,15.40
2023-04-22T20:21:49.247Z,15.40
2023-04-22T20:24:21.907Z,15.30
2023-04-22T20:26:55.666Z,15.30
2023-04-22T20:29:27.773Z,15.30
2023-04-22T20:32:00.755Z,15.30
2023-04-22T20:34:33.801Z,16.40
2023-04-22T20:37:34.466Z,15.20
2023-04-22T20:40:08.605Z,15.20
2023-04-22T20:42:41.765Z,15.10
2023-04-22T20:45:16.114Z,15.10
2023-04-22T20:47:48.542Z,15.00
2023-04-22T20:50:21.542Z,15.00
2023-04-22T20:52:53.700Z,15.00
2023-04-22T20:55:26.738Z,14.90
2023-04-22T20:57:59.174Z,14.80
2023-04-22T21:00:31.491Z,14.80
2023-04-22T21:03:09.191Z,14.80
2023-04-22T21:05:45.895Z,14.70
2023-04-22T21:08:25.550Z,14.70
2023-04-22T21:10:57.683Z,14.70
2023-04-22T21:13:30.751Z,14.60
2023-04-22T21:16:07.253Z,14.60
2023-04-22T21:18:47.479Z,14.60
2023-04-22T21:21:21.794Z,14.50
2023-04-22T21:23:56.702Z,14.50
2023-04-22T21:26:34.393Z,14.50
2023-04-22T21:29:07.113Z,14.50
2023-04-22T21:31:39.202Z,14.40
2023-04-22T21:34:12.044Z,14.40
2023-04-22T21:36:43.980Z,14.40
2023-04-22T21:39:16.761Z,14.40
2023-04-22T21:44:22.537Z,14.30
2023-04-22T21:46:54.680Z,14.30
2023-04-22T21:49:27.438Z,14.30
2023-04-22T21:52:00.042Z,14.30
2023-04-22T21:54:32.389Z,14.20
2023-04-22T21:57:04.387Z,14.20
2023-04-22T21:59:37.160Z,14.20
2023-04-22T22:02:09.089Z,14.20
2023-04-22T22:04:42.252Z,14.20
2023-04-22T22:07:17.891Z,14.20
2023-04-22T22:09:49.859Z,14.20
2023-04-22T22:14:59.260Z,14.30
2023-04-22T22:17:32.520Z,14.30
2023-04-22T22:20:11.656Z,14.30
2023-04-22T22:22:44.504Z,14.30
2023-04-22T22:25:17.328Z,14.30
2023-04-22T22:27:49.517Z,14.30
2023-04-22T22:32:54.961Z,14.30
2023-04-22T22:35:27.737Z,14.30
2023-04-22T22:37:59.622Z,14.30
2023-04-22T22:40:32.367Z,14.30
2023-04-22T22:43:04.271Z,14.30
2023-04-22T22:48:09.821Z,14.20
2023-04-22T22:53:16.360Z,14.10
2023-04-22T22:55:48.855Z,14.20
2023-04-22T22:58:21.537Z,14.20
2023-04-22T23:03:30.809Z,14.20
2023-04-22T23:06:02.909Z,14.20
2023-04-22T23:13:41.521Z,14.00
2023-04-22T23:18:47.145Z,13.90
2023-04-22T23:21:19.796Z,13.80
2023-04-22T23:23:53.207Z,13.80
2023-04-22T23:26:26.228Z,13.70
2023-04-22T23:28:58.928Z,13.60
2023-04-22T23:31:33.874Z,13.70
2023-04-22T23:34:06.617Z,13.60
2023-04-22T23:36:38.831Z,13.70
2023-04-22T23:44:17.351Z,13.70
2023-04-22T23:49:22.620Z,13.70
2023-04-22T23:51:54.523Z,13.60
2023-04-22T23:54:28.718Z,13.70
2023-04-22T23:57:01.467Z,13.70
2023-04-22T23:59:34.287Z,13.70
